Time;durP1;ratioP1;P1;durP2;ratioP2;P2;SDS_P1;SDS_P2;PMS_P1;PMS_P2;Temp;Humidity;BMP_temperature;BMP_pressure;BME280_temperature;BME280_humidity;BME280_pressure;Samples;Min_cycle;Max_cycle;Signal;HPM_P1;HPM_P2
2022/02/04 00:06:11;;;;;;;20.47;18.77;;;4.10;99.90;;;;;;4983480;28;20209;-78
2022/02/04 00:09:06;;;;;;;19.83;18.17;;;4.00;99.90;;;;;;4999852;28;20232;-79
2022/02/04 00:22:59;;;;;;;20.83;19.03;;;3.70;99.90;;;;;;4973480;28;20436;-78
2022/02/04 00:25:37;;;;;;;20.80;19.07;;;3.60;99.90;;;;;;4995789;28;20201;-79
2022/02/04 00:28:09;;;;;;;21.97;20.17;;;3.50;99.90;;;;;;4980642;28;20248;-78
2022/02/04 00:30:40;;;;;;;21.97;20.17;;;3.40;99.90;;;;;;4989883;28;20582;-79
2022/02/04 00:33:09;;;;;;;22.03;20.13;;;3.30;99.90;;;;;;4989163;28;20658;-78
2022/02/04 00:35:49;;;;;;;21.40;19.40;;;3.20;99.90;;;;;;5020900;28;20463;-78
2022/02/04 00:38:25;;;;;;;22.07;20.27;;;3.20;99.90;;;;;;5018753;28;20482;-78
2022/02/04 00:40:58;;;;;;;22.47;20.40;;;3.10;99.90;;;;;;4990977;28;20267;-80
2022/02/04 00:43:25;;;;;;;22.87;20.70;;;3.00;99.90;;;;;;4985558;28;20635;-80
2022/02/04 00:45:58;;;;;;;21.87;20.07;;;3.00;99.90;;;;;;4990563;28;20540;-78
2022/02/04 00:48:34;;;;;;;21.73;19.97;;;3.00;99.90;;;;;;4987021;28;20283;-78
2022/02/04 00:51:09;;;;;;;21.73;19.93;;;2.90;99.90;;;;;;4992456;28;20217;-80
2022/02/04 00:53:46;;;;;;;21.43;19.70;;;2.90;99.90;;;;;;5010147;28;20298;-78
2022/02/04 00:56:21;;;;;;;21.23;19.43;;;3.00;99.90;;;;;;4986909;28;20457;-78
2022/02/04 01:26:19;;;;;;;21.70;20.00;;;3.40;99.90;;;;;;5003102;28;20201;-75
2022/02/04 01:28:48;;;;;;;21.57;19.77;;;3.40;99.90;;;;;;5000351;28;20225;-76
2022/02/04 01:31:17;;;;;;;20.63;18.87;;;3.50;99.90;;;;;;5006589;28;20639;-75
2022/02/04 01:33:45;;;;;;;20.63;19.03;;;3.50;99.90;;;;;;5002816;28;20482;-76
2022/02/04 01:36:12;;;;;;;21.37;19.67;;;3.50;99.90;;;;;;5008101;28;20204;-75
2022/02/04 01:38:41;;;;;;;21.13;19.23;;;3.50;99.90;;;;;;5000278;28;20711;-76
2022/02/04 01:41:09;;;;;;;20.47;18.87;;;3.60;99.90;;;;;;5005708;28;20189;-75
2022/02/04 01:43:36;;;;;;;21.40;19.67;;;3.70;99.90;;;;;;4999421;28;20694;-76
2022/02/04 01:46:06;;;;;;;21.03;19.33;;;3.70;99.90;;;;;;5005880;28;20220;-77
2022/02/04 01:48:34;;;;;;;22.20;20.30;;;3.70;99.90;;;;;;5003242;28;20469;-76
2022/02/04 01:51:02;;;;;;;22.70;20.87;;;3.80;99.90;;;;;;5006952;28;20224;-75
2022/02/04 01:53:29;;;;;;;22.47;20.57;;;3.80;99.90;;;;;;4992032;28;20196;-75
2022/02/04 01:55:59;;;;;;;21.40;19.53;;;3.90;99.90;;;;;;5004895;28;20205;-76
2022/02/04 01:58:27;;;;;;;20.33;18.57;;;4.10;99.90;;;;;;5000339;28;20216;-76
2022/02/04 02:00:54;;;;;;;20.87;19.07;;;4.10;99.90;;;;;;5009756;28;20184;-76
2022/02/04 02:03:21;;;;;;;21.40;19.60;;;4.20;99.90;;;;;;5010463;28;20208;-76
2022/02/04 02:05:50;;;;;;;22.33;20.33;;;4.30;99.90;;;;;;5004082;28;20216;-75
2022/02/04 02:08:19;;;;;;;22.33;20.33;;;4.30;99.90;;;;;;4998794;28;20327;-76
2022/02/04 02:10:48;;;;;;;20.70;19.00;;;4.30;99.90;;;;;;4998665;28;20583;-76
2022/02/04 02:13:24;;;;;;;21.10;19.30;;;4.40;99.90;;;;;;5005933;28;20283;-76
2022/02/04 02:16:01;;;;;;;21.17;19.27;;;4.30;99.90;;;;;;5005333;28;20192;-76
2022/02/04 02:46:10;;;;;;;19.30;17.60;;;4.10;99.90;;;;;;5001007;28;20200;-75
2022/02/04 02:49:02;;;;;;;17.83;16.40;;;4.20;99.90;;;;;;5000211;28;20222;-76
2022/02/04 02:54:38;;;;;;;19.87;18.20;;;4.30;99.90;;;;;;4973317;28;20623;-76
2022/02/04 02:59:52;;;;;;;18.67;17.13;;;4.30;99.90;;;;;;5001416;28;20626;-76
2022/02/04 03:02:19;;;;;;;18.60;17.10;;;4.30;99.90;;;;;;4999843;28;20622;-75
2022/02/04 03:04:46;;;;;;;18.30;16.80;;;4.20;99.90;;;;;;5003655;28;20198;-75
2022/02/04 03:07:13;;;;;;;18.20;16.70;;;4.20;99.90;;;;;;5002694;28;20206;-74
2022/02/04 03:09:41;;;;;;;18.17;16.67;;;4.20;99.90;;;;;;5010576;28;20212;-76
2022/02/04 03:12:09;;;;;;;18.00;16.50;;;4.30;99.90;;;;;;5003199;28;20621;-76
2022/02/04 03:14:36;;;;;;;17.70;16.27;;;4.20;99.90;;;;;;5001298;28;20197;-76
2022/02/04 03:17:06;;;;;;;18.03;16.63;;;4.20;99.90;;;;;;5005342;28;20198;-76
2022/02/04 03:19:33;;;;;;;18.27;16.93;;;4.20;99.90;;;;;;5003174;28;20224;-76
2022/02/04 03:22:05;;;;;;;16.87;15.67;;;4.30;99.90;;;;;;4994183;28;20192;-76
2022/02/04 03:24:33;;;;;;;16.87;15.57;;;4.30;99.90;;;;;;4997805;28;20192;-76
2022/02/04 03:27:07;;;;;;;17.23;15.90;;;4.30;99.90;;;;;;5004343;28;20649;-76
2022/02/04 03:29:45;;;;;;;18.70;17.33;;;4.30;99.90;;;;;;4998778;28;20212;-75
2022/02/04 03:32:18;;;;;;;18.00;16.50;;;4.40;99.90;;;;;;5000772;28;20220;-77
2022/02/04 03:34:45;;;;;;;17.77;16.23;;;4.40;99.90;;;;;;5006671;28;20684;-76
2022/02/04 03:37:15;;;;;;;16.80;15.60;;;4.50;99.90;;;;;;5001406;28;20208;-76
2022/02/04 03:39:42;;;;;;;17.27;15.77;;;4.50;99.90;;;;;;5000325;28;20216;-76
2022/02/04 03:42:13;;;;;;;17.63;16.33;;;4.50;99.90;;;;;;4999567;28;20201;-81
2022/02/04 03:44:40;;;;;;;17.80;16.30;;;4.50;99.90;;;;;;5002864;28;20618;-77
2022/02/04 03:50:05;;;;;;;16.57;15.27;;;4.60;99.90;;;;;;5000153;28;20259;-81
2022/02/04 03:52:32;;;;;;;16.50;15.30;;;4.60;99.90;;;;;;5011137;28;20593;-80
2022/02/04 03:54:59;;;;;;;17.00;15.80;;;4.70;99.90;;;;;;5005977;28;20189;-80
2022/02/04 03:57:27;;;;;;;17.40;16.10;;;4.70;99.90;;;;;;5000997;28;20211;-80
2022/02/04 03:59:54;;;;;;;16.43;15.20;;;4.70;99.90;;;;;;4993785;28;20226;-78
2022/02/04 04:02:21;;;;;;;16.60;15.40;;;4.70;99.90;;;;;;4983155;28;20209;-78
2022/02/04 04:04:48;;;;;;;16.80;15.50;;;4.80;99.90;;;;;;4985633;28;20201;-78
2022/02/04 04:07:15;;;;;;;16.20;15.10;;;4.80;99.90;;;;;;4987475;28;20209;-77
2022/02/04 04:09:48;;;;;;;15.67;14.47;;;4.80;99.90;;;;;;5003354;28;20222;-77
2022/02/04 04:12:16;;;;;;;16.53;15.33;;;4.90;99.90;;;;;;5000935;28;20226;-77
2022/02/04 04:14:46;;;;;;;17.03;15.63;;;4.90;99.90;;;;;;5009219;28;20192;-78
2022/02/04 04:17:14;;;;;;;16.93;15.73;;;4.90;99.90;;;;;;5007100;28;20196;-77
2022/02/04 04:19:41;;;;;;;16.17;15.07;;;4.90;99.90;;;;;;5001743;28;20251;-77
2022/02/04 04:22:08;;;;;;;16.37;15.17;;;5.00;99.90;;;;;;5000085;28;20193;-77
2022/02/04 04:24:35;;;;;;;16.57;15.37;;;5.00;99.90;;;;;;4993783;28;20203;-77
2022/02/04 04:27:01;;;;;;;16.47;15.17;;;5.00;99.90;;;;;;5006293;28;20231;-77
2022/02/04 04:29:28;;;;;;;15.03;13.97;;;5.00;99.90;;;;;;4992323;28;20208;-79
2022/02/04 04:31:56;;;;;;;13.63;12.53;;;5.00;99.90;;;;;;5019047;28;20685;-80
2022/02/04 04:34:23;;;;;;;15.67;14.47;;;5.10;99.90;;;;;;4998928;28;20259;-77
2022/02/04 04:36:50;;;;;;;17.83;16.53;;;5.10;99.90;;;;;;4995611;28;20849;-77
2022/02/04 04:39:26;;;;;;;15.43;14.33;;;5.10;99.90;;;;;;5005256;28;20275;-78
2022/02/04 04:42:08;;;;;;;14.33;13.33;;;5.10;99.90;;;;;;5002582;28;20215;-79
2022/02/04 05:26:17;;;;;;;10.27;9.27;;;5.60;99.90;;;;;;4997613;28;20551;-78
2022/02/04 05:28:58;;;;;;;9.37;8.47;;;5.60;99.90;;;;;;4992543;28;20278;-79
2022/02/04 05:31:25;;;;;;;7.60;6.63;;;5.60;99.90;;;;;;5002765;28;20221;-78
2022/02/04 05:33:52;;;;;;;11.07;10.17;;;5.70;99.90;;;;;;5001253;28;20243;-77
2022/02/04 05:36:20;;;;;;;7.93;6.27;;;5.70;99.90;;;;;;5000505;28;20198;-80
2022/02/04 05:38:47;;;;;;;9.87;9.07;;;5.70;99.90;;;;;;5000676;28;20794;-78
2022/02/04 05:41:20;;;;;;;7.40;6.00;;;5.80;99.90;;;;;;4984261;28;20288;-79
2022/02/04 05:43:47;;;;;;;6.63;5.53;;;5.80;99.90;;;;;;4983470;28;20213;-76
2022/02/04 05:46:18;;;;;;;6.10;5.50;;;5.80;99.90;;;;;;4993714;28;20592;-77
2022/02/04 05:48:49;;;;;;;7.07;6.40;;;5.80;99.90;;;;;;5003088;28;20307;-75
2022/02/04 05:51:29;;;;;;;7.90;7.20;;;5.80;99.90;;;;;;5001424;28;20222;-76
2022/02/04 05:54:04;;;;;;;17.63;16.43;;;5.80;99.90;;;;;;4999246;28;20695;-77
2022/02/04 05:56:38;;;;;;;16.67;15.50;;;5.80;99.90;;;;;;4989725;28;20297;-76
2022/02/04 05:59:13;;;;;;;17.43;16.33;;;5.90;99.90;;;;;;5000576;28;20221;-77
2022/02/04 06:01:51;;;;;;;15.83;14.57;;;5.80;99.90;;;;;;5003623;28;20195;-78
2022/02/04 06:04:42;;;;;;;15.43;14.33;;;5.80;99.90;;;;;;5012619;28;20549;-78
2022/02/04 06:22:07;;;;;;;15.83;14.63;;;5.90;99.90;;;;;;5011327;28;20201;-77
2022/02/04 06:23:32;;;;;;;16.63;15.33;;;5.90;99.90;;;;;;5001872;28;20204;-75
2022/02/04 06:26:01;;;;;;;16.43;15.23;;;5.90;99.90;;;;;;5003675;28;20197;-77
2022/02/04 06:28:28;;;;;;;16.80;15.60;;;6.00;99.90;;;;;;4989065;28;20288;-76
2022/02/04 06:30:55;;;;;;;16.27;15.07;;;6.00;99.90;;;;;;4989097;28;20257;-76
2022/02/04 06:33:22;;;;;;;17.27;15.97;;;6.00;99.90;;;;;;4987772;28;20207;-78
2022/02/04 06:35:49;;;;;;;16.57;15.37;;;6.00;99.90;;;;;;4983857;28;20228;-76
2022/02/04 06:38:16;;;;;;;18.27;16.97;;;6.00;99.90;;;;;;4992265;28;20287;-77
2022/02/04 06:40:42;;;;;;;16.53;15.33;;;6.00;99.90;;;;;;4988087;28;20211;-77
2022/02/04 06:43:10;;;;;;;16.60;15.27;;;6.00;99.90;;;;;;4996699;28;20201;-77
2022/02/04 06:45:37;;;;;;;16.73;15.33;;;6.10;99.90;;;;;;4999375;28;20542;-76
2022/02/04 06:48:05;;;;;;;16.80;15.50;;;6.00;99.90;;;;;;5012889;28;20581;-76
2022/02/04 06:50:32;;;;;;;16.57;15.27;;;6.00;99.90;;;;;;4995813;28;20199;-77
2022/02/04 06:52:58;;;;;;;16.07;14.90;;;6.00;99.90;;;;;;5007238;28;20218;-76
2022/02/04 06:55:25;;;;;;;16.50;15.30;;;6.00;99.90;;;;;;5008532;28;20628;-77
2022/02/04 06:57:54;;;;;;;16.50;15.27;;;6.10;99.90;;;;;;4997677;28;20208;-77
2022/02/04 07:00:25;;;;;;;16.23;15.03;;;6.10;99.90;;;;;;4996657;28;20258;-77
2022/02/04 07:02:53;;;;;;;15.87;14.67;;;6.10;99.90;;;;;;5013402;28;20194;-78
2022/02/04 07:05:21;;;;;;;16.20;15.00;;;6.10;99.90;;;;;;5004178;28;20205;-77
2022/02/04 07:07:55;;;;;;;17.50;16.17;;;6.10;99.90;;;;;;5005048;28;20732;-77
2022/02/04 07:10:30;;;;;;;16.10;14.90;;;6.10;99.90;;;;;;5046888;22;20227;-79
2022/02/04 07:13:04;;;;;;;15.60;14.50;;;6.10;99.90;;;;;;5023919;28;20287;-78
2022/02/04 07:21:00;;;;;;;15.70;14.50;;;6.10;99.90;;;;;;5011446;28;20199;-80
2022/02/04 07:23:27;;;;;;;17.10;15.70;;;6.10;99.90;;;;;;4997097;28;20197;-79
2022/02/04 07:25:54;;;;;;;16.13;15.03;;;6.10;99.90;;;;;;4998724;28;20200;-80
2022/02/04 07:28:21;;;;;;;16.37;15.17;;;6.10;99.90;;;;;;4998416;28;20222;-79
2022/02/04 07:30:49;;;;;;;16.23;15.03;;;6.10;99.90;;;;;;4996556;28;20212;-78
2022/02/04 07:33:19;;;;;;;16.60;15.40;;;6.20;99.90;;;;;;5006637;28;20217;-79
2022/02/04 07:38:49;;;;;;;17.60;16.40;;;6.20;99.90;;;;;;4997720;28;20268;-79
2022/02/04 07:41:15;;;;;;;16.53;15.30;;;6.20;99.90;;;;;;5002322;28;20234;-79
2022/02/04 07:43:42;;;;;;;17.07;15.63;;;6.30;99.90;;;;;;4996932;28;20186;-80
2022/02/04 07:46:13;;;;;;;16.17;15.03;;;6.30;99.90;;;;;;5009618;28;20562;-82
2022/02/04 07:48:40;;;;;;;16.07;14.87;;;6.30;99.90;;;;;;5011560;28;20234;-82
2022/02/04 07:51:07;;;;;;;15.83;14.63;;;6.40;99.90;;;;;;5011531;28;20202;-82
2022/02/04 07:53:35;;;;;;;15.27;14.07;;;6.40;99.90;;;;;;5004853;28;20298;-79
2022/02/04 07:56:03;;;;;;;15.67;14.47;;;6.40;99.90;;;;;;4997637;28;20198;-80
2022/02/04 07:58:30;;;;;;;13.90;12.80;;;6.40;99.90;;;;;;4991239;28;20206;-78
2022/02/04 08:00:59;;;;;;;16.67;15.47;;;6.40;99.90;;;;;;4991483;28;20206;-77
2022/02/04 08:03:39;;;;;;;17.50;16.20;;;6.50;99.90;;;;;;5001197;28;20194;-79
2022/02/04 08:06:10;;;;;;;16.20;15.00;;;6.50;99.90;;;;;;5005011;28;20258;-79
2022/02/04 08:08:41;;;;;;;17.20;16.00;;;6.50;99.90;;;;;;5009135;28;20204;-78
2022/02/04 08:11:18;;;;;;;17.63;16.33;;;6.60;99.90;;;;;;5005810;28;20209;-79
2022/02/04 08:14:09;;;;;;;17.20;16.00;;;6.70;99.90;;;;;;5009169;28;20222;-77
2022/02/04 08:30:27;;;;;;;14.13;12.97;;;7.30;99.90;;;;;;5000826;28;20254;-78
2022/02/04 08:33:09;;;;;;;15.90;14.60;;;7.30;99.90;;;;;;5007792;28;20277;-80
2022/02/04 08:36:05;;;;;;;17.23;15.93;;;7.30;99.90;;;;;;5001618;28;20199;-80
2022/02/04 08:38:45;;;;;;;17.60;16.40;;;7.30;99.90;;;;;;4994218;28;20226;-78
2022/02/04 08:47:04;;;;;;;10.13;9.13;;;7.90;99.90;;;;;;4999968;28;20270;-79
2022/02/04 08:52:36;;;;;;;7.93;7.13;;;9.10;99.90;;;;;;5005701;28;20232;-77
2022/02/04 08:55:06;;;;;;;11.40;10.30;;;9.40;99.90;;;;;;4993974;28;20263;-77
2022/02/04 08:57:39;;;;;;;10.17;9.17;;;9.20;99.90;;;;;;5006017;28;20262;-79
2022/02/04 09:00:11;;;;;;;15.43;14.33;;;9.40;99.90;;;;;;4999060;28;20597;-79
2022/02/04 09:02:40;;;;;;;10.43;9.47;;;9.80;99.90;;;;;;4996682;28;20552;-77
2022/02/04 09:05:12;;;;;;;8.93;8.00;;;9.90;99.90;;;;;;4996881;28;20571;-79
2022/02/04 09:07:51;;;;;;;12.50;11.50;;;9.80;99.90;;;;;;5006728;28;20662;-77
2022/02/04 09:10:23;;;;;;;12.90;11.70;;;9.60;99.90;;;;;;5006210;28;20713;-77
2022/02/04 09:23:56;;;;;;;5.97;5.23;;;9.00;99.90;;;;;;4996158;28;20208;-79
2022/02/04 09:26:22;;;;;;;6.00;5.40;;;8.90;99.90;;;;;;5005465;28;20252;-78
2022/02/04 09:28:49;;;;;;;11.50;10.60;;;8.90;99.90;;;;;;5005043;28;20642;-81
2022/02/04 09:31:16;;;;;;;11.27;10.47;;;8.90;99.90;;;;;;5009478;28;20197;-79
2022/02/04 09:33:43;;;;;;;10.70;9.90;;;8.90;99.90;;;;;;5007577;28;20220;-79
2022/02/04 09:36:10;;;;;;;11.00;10.20;;;8.70;99.90;;;;;;5010846;28;20197;-78
2022/02/04 09:38:37;;;;;;;10.60;9.80;;;8.80;99.90;;;;;;5008396;28;20204;-78
2022/02/04 09:41:05;;;;;;;11.60;10.80;;;8.70;99.90;;;;;;4997533;28;20683;-78
2022/02/04 09:43:32;;;;;;;13.17;12.17;;;8.80;99.90;;;;;;5005973;28;20196;-79
2022/02/04 09:46:00;;;;;;;12.70;11.83;;;8.80;99.90;;;;;;5008643;28;20677;-78
2022/02/04 09:48:28;;;;;;;12.23;11.33;;;8.80;99.90;;;;;;5006485;28;20197;-79
2022/02/04 09:50:57;;;;;;;12.07;11.17;;;8.80;99.90;;;;;;5011086;28;20243;-78
2022/02/04 10:04:54;;;;;;;12.63;11.73;;;8.90;99.90;;;;;;5006188;28;20207;-79
2022/02/04 10:07:32;;;;;;;11.07;10.20;;;8.90;99.90;;;;;;5006415;28;20207;-79
2022/02/04 10:10:34;;;;;;;11.27;10.57;;;9.00;99.90;;;;;;4997820;28;20252;-80
2022/02/04 10:18:49;;;;;;;9.60;9.00;;;8.90;99.90;;;;;;5103131;27;1249867;-80
2022/02/04 10:21:16;;;;;;;10.83;10.23;;;8.90;99.90;;;;;;5122237;28;20466;-78
2022/02/04 10:23:51;;;;;;;11.73;11.03;;;8.90;99.90;;;;;;5121875;28;20258;-79
2022/02/04 10:26:20;;;;;;;12.00;11.30;;;8.90;99.90;;;;;;5120416;28;20203;-81
2022/02/04 10:28:47;;;;;;;11.77;11.07;;;8.80;99.90;;;;;;5107100;28;20852;-79
2022/02/04 10:31:19;;;;;;;10.93;10.33;;;8.80;99.90;;;;;;5063200;22;20223;-76
2022/02/04 10:34:09;;;;;;;11.17;10.47;;;8.80;99.90;;;;;;5025539;28;20665;-77
2022/02/04 10:36:45;;;;;;;10.83;10.03;;;8.80;99.90;;;;;;5021509;28;20270;-76
2022/02/04 10:39:39;;;;;;;10.50;9.80;;;8.80;99.90;;;;;;5019687;28;20203;-77
2022/02/04 10:42:19;;;;;;;10.90;10.30;;;8.90;99.90;;;;;;5005010;28;20744;-76
2022/02/04 10:44:59;;;;;;;11.17;10.47;;;9.10;99.90;;;;;;5000590;28;20262;-77
2022/02/04 10:47:37;;;;;;;10.60;9.90;;;9.20;99.90;;;;;;5003691;28;20200;-77
2022/02/04 10:50:12;;;;;;;10.80;10.20;;;9.40;99.90;;;;;;5002452;28;20268;-76
2022/02/04 10:53:02;;;;;;;11.00;10.20;;;9.40;99.90;;;;;;4999285;28;20204;-76
2022/02/04 10:58:29;;;;;;;10.73;10.13;;;9.60;99.90;;;;;;5005238;28;20723;-77
2022/02/04 11:01:11;;;;;;;10.90;10.20;;;9.60;99.90;;;;;;4997690;28;20596;-77
2022/02/04 11:03:44;;;;;;;10.70;10.10;;;9.70;99.90;;;;;;5035760;28;20258;-77
2022/02/04 11:06:22;;;;;;;11.10;10.40;;;9.70;99.90;;;;;;5001975;28;20276;-77
2022/02/04 11:21:59;;;;;;;11.00;10.40;;;9.60;99.90;;;;;;5002131;28;20212;-76
2022/02/04 11:31:17;;;;;;;10.67;10.07;;;9.50;99.90;;;;;;5016939;28;20722;-77
2022/02/04 11:34:13;;;;;;;10.60;10.00;;;9.50;99.90;;;;;;4989333;28;20303;-76
2022/02/04 11:37:08;;;;;;;10.67;10.07;;;9.40;99.90;;;;;;4986146;28;20197;-77
2022/02/04 11:51:42;;;;;;;11.13;10.53;;;9.30;99.90;;;;;;4988629;28;20217;-77
2022/02/04 11:54:35;;;;;;;11.00;10.40;;;9.30;99.90;;;;;;5019586;28;20210;-77
2022/02/04 11:57:18;;;;;;;10.90;10.30;;;9.30;99.90;;;;;;4991087;28;20221;-77
2022/02/04 11:59:47;;;;;;;11.30;10.50;;;9.20;99.90;;;;;;4988334;28;20279;-76
2022/02/04 12:02:34;;;;;;;10.20;9.60;;;9.20;99.90;;;;;;4989775;28;20197;-77
2022/02/04 12:05:32;;;;;;;10.20;9.60;;;9.10;99.90;;;;;;4981617;28;20674;-77
2022/02/04 12:08:30;;;;;;;10.20;9.60;;;9.10;99.90;;;;;;4990535;28;20201;-77
2022/02/04 12:11:07;;;;;;;9.80;9.30;;;9.00;99.90;;;;;;4997369;28;20220;-77
2022/02/04 12:14:07;;;;;;;10.43;9.83;;;9.00;99.90;;;;;;4982244;28;20579;-77
2022/02/04 12:16:34;;;;;;;9.93;9.43;;;9.00;99.90;;;;;;4989581;28;20247;-77
2022/02/04 12:19:09;;;;;;;9.93;9.33;;;8.90;99.90;;;;;;4987275;28;20222;-76
2022/02/04 12:21:46;;;;;;;9.60;9.10;;;8.90;99.90;;;;;;5023353;28;20780;-77
2022/02/04 12:24:34;;;;;;;10.10;9.50;;;8.90;99.90;;;;;;4988553;28;20670;-77
2022/02/04 12:27:26;;;;;;;9.63;9.03;;;8.90;99.90;;;;;;4989820;28;20720;-77
2022/02/04 12:29:55;;;;;;;9.20;8.70;;;8.90;99.90;;;;;;4987027;28;20793;-77
2022/02/04 12:32:22;;;;;;;9.73;9.23;;;8.90;99.90;;;;;;4990038;28;20209;-77
2022/02/04 12:34:50;;;;;;;9.53;9.03;;;8.90;99.90;;;;;;4993027;28;20229;-77
2022/02/04 12:37:19;;;;;;;9.70;9.20;;;8.90;99.90;;;;;;4989469;28;20206;-77
2022/02/04 12:39:48;;;;;;;9.90;9.20;;;8.90;99.90;;;;;;4986939;28;20225;-78
2022/02/04 12:42:19;;;;;;;9.63;9.13;;;8.80;99.90;;;;;;4989823;28;20579;-77
2022/02/04 12:44:46;;;;;;;9.50;9.00;;;8.70;99.90;;;;;;4990532;28;20201;-78
2022/02/04 12:47:16;;;;;;;9.50;9.00;;;8.80;99.90;;;;;;5011492;28;20289;-77
2022/02/04 12:49:49;;;;;;;9.50;8.90;;;8.80;99.90;;;;;;4987336;28;20224;-78
2022/02/04 12:52:21;;;;;;;9.70;9.10;;;8.80;99.90;;;;;;5016570;28;20205;-78
2022/02/04 12:54:54;;;;;;;9.83;9.30;;;8.70;99.90;;;;;;5009006;28;20233;-78
2022/02/04 12:57:34;;;;;;;9.80;9.30;;;8.60;99.90;;;;;;4990206;28;20716;-76
2022/02/04 13:00:09;;;;;;;9.80;9.30;;;8.60;99.90;;;;;;5010034;28;20225;-77
2022/02/04 13:03:02;;;;;;;9.70;9.20;;;8.60;99.90;;;;;;4986941;28;20201;-77
2022/02/04 13:08:19;;;;;;;10.20;9.60;;;8.80;99.90;;;;;;4986959;28;20193;-76
2022/02/04 13:10:56;;;;;;;10.20;9.60;;;8.70;99.90;;;;;;4989597;28;20248;-76
2022/02/04 13:13:23;;;;;;;10.20;9.60;;;8.70;99.90;;;;;;4990044;28;20208;-78
2022/02/04 13:15:55;;;;;;;10.13;9.50;;;9.00;99.90;;;;;;4991222;28;20260;-76
2022/02/04 13:18:24;;;;;;;10.50;9.80;;;9.50;99.90;;;;;;4986010;28;20291;-76
2022/02/04 13:20:55;;;;;;;9.90;9.30;;;9.10;99.90;;;;;;4987171;28;20307;-76
2022/02/04 13:23:24;;;;;;;9.63;9.13;;;8.90;99.90;;;;;;4982816;28;20673;-76
2022/02/04 13:25:53;;;;;;;10.00;9.40;;;8.80;99.90;;;;;;4990043;28;20198;-76
2022/02/04 13:28:21;;;;;;;9.90;9.30;;;8.70;99.90;;;;;;4980418;28;20217;-76
2022/02/04 13:30:59;;;;;;;10.13;9.43;;;8.60;99.90;;;;;;4980428;28;20229;-76
2022/02/04 13:33:30;;;;;;;10.10;9.50;;;8.50;99.90;;;;;;4989145;28;20224;-76
2022/02/04 13:36:03;;;;;;;9.97;9.37;;;8.50;99.90;;;;;;4989573;28;20213;-76
2022/02/04 13:38:42;;;;;;;10.20;9.60;;;8.40;99.90;;;;;;4988242;28;20223;-76
2022/02/04 13:41:24;;;;;;;10.20;9.60;;;8.40;99.90;;;;;;4978003;28;20220;-76
2022/02/04 13:44:22;;;;;;;10.00;9.40;;;8.30;99.90;;;;;;5008014;28;20210;-76
2022/02/04 13:46:54;;;;;;;10.03;9.43;;;8.40;99.90;;;;;;4988725;28;20748;-76
2022/02/04 13:49:51;;;;;;;10.27;9.67;;;8.30;99.90;;;;;;4979969;28;20193;-76
2022/02/04 13:52:35;;;;;;;9.90;9.30;;;8.20;99.90;;;;;;4982880;28;20260;-76
2022/02/04 13:55:17;;;;;;;9.70;9.10;;;8.30;99.90;;;;;;4987129;28;20576;-76
2022/02/04 13:57:51;;;;;;;9.53;9.03;;;8.20;99.90;;;;;;4979160;28;20603;-76
2022/02/04 14:00:27;;;;;;;9.97;9.43;;;8.20;99.90;;;;;;4979967;28;20264;-75
2022/02/04 14:03:14;;;;;;;10.20;9.60;;;8.10;99.90;;;;;;4992663;28;20193;-76
2022/02/04 14:05:50;;;;;;;9.73;9.23;;;8.00;99.90;;;;;;4990937;28;20205;-75
2022/02/04 14:08:20;;;;;;;9.83;9.23;;;8.00;99.90;;;;;;4991622;28;20201;-76
2022/02/04 14:10:54;;;;;;;9.60;9.10;;;8.00;99.90;;;;;;4989992;28;20227;-76
2022/02/04 14:13:23;;;;;;;9.70;9.20;;;8.00;99.90;;;;;;4991364;28;20710;-76
2022/02/04 14:15:54;;;;;;;9.80;9.23;;;8.00;99.90;;;;;;4991517;28;20197;-75
2022/02/04 14:18:22;;;;;;;10.10;9.50;;;8.00;99.90;;;;;;4993088;28;20209;-76
2022/02/04 14:20:50;;;;;;;10.30;9.70;;;8.00;99.90;;;;;;4991343;28;20279;-76
2022/02/04 14:23:17;;;;;;;9.87;9.37;;;8.00;99.90;;;;;;4989111;28;20204;-78
2022/02/04 14:25:49;;;;;;;9.70;9.20;;;8.00;99.90;;;;;;4989739;28;20205;-79
2022/02/04 14:28:20;;;;;;;9.50;9.00;;;8.00;99.90;;;;;;4990134;28;20196;-79
2022/02/04 14:30:57;;;;;;;9.40;8.90;;;8.00;99.90;;;;;;5014743;28;20236;-79
2022/02/04 14:34:05;;;;;;;9.10;8.60;;;8.00;99.90;;;;;;4991370;28;20222;-79
2022/02/04 14:36:16;;;;;;;9.43;8.93;;;8.10;99.90;;;;;;4989115;28;20201;-79
2022/02/04 14:52:41;;;;;;;9.10;8.60;;;8.00;99.90;;;;;;4983788;28;20201;-79
2022/02/04 15:00:45;;;;;;;9.63;9.03;;;7.90;99.90;;;;;;5007813;28;20220;-79
2022/02/04 15:06:05;;;;;;;9.13;8.63;;;7.80;99.90;;;;;;4997114;28;20212;-79
2022/02/04 15:08:37;;;;;;;9.00;8.50;;;7.80;99.90;;;;;;4985509;28;20216;-78
2022/02/04 15:11:12;;;;;;;9.20;8.70;;;7.80;99.90;;;;;;5021560;28;20224;-75
2022/02/04 15:13:40;;;;;;;9.40;8.90;;;7.80;99.90;;;;;;4991670;28;20203;-76
2022/02/04 15:16:07;;;;;;;9.10;8.60;;;7.70;99.90;;;;;;4989109;28;20204;-76
2022/02/04 15:18:34;;;;;;;9.20;8.70;;;7.80;99.90;;;;;;4992149;28;20228;-76
2022/02/04 15:21:03;;;;;;;8.80;8.30;;;7.70;99.90;;;;;;4986462;28;20214;-77
2022/02/04 15:23:30;;;;;;;9.10;8.60;;;7.70;99.90;;;;;;4991187;28;20208;-77
2022/02/04 15:26:01;;;;;;;9.30;8.80;;;7.70;99.90;;;;;;4990067;28;20205;-77
2022/02/04 15:28:43;;;;;;;9.50;8.90;;;7.60;99.90;;;;;;4992434;28;20279;-76
2022/02/04 15:31:20;;;;;;;9.30;8.77;;;7.60;99.90;;;;;;4993320;28;20248;-76
2022/02/04 15:33:49;;;;;;;9.73;9.23;;;7.60;99.90;;;;;;4991514;28;20196;-78
2022/02/04 15:36:23;;;;;;;9.67;9.07;;;7.60;99.90;;;;;;5017431;28;20214;-78
2022/02/04 15:38:50;;;;;;;9.80;9.10;;;7.60;99.90;;;;;;4985850;28;20221;-77
2022/02/04 15:41:18;;;;;;;8.97;8.47;;;7.60;99.90;;;;;;5018623;28;20319;-77
2022/02/04 15:43:49;;;;;;;9.10;8.50;;;7.60;99.90;;;;;;4992654;28;20244;-77
2022/02/04 15:46:36;;;;;;;9.20;8.70;;;7.50;99.90;;;;;;4993046;28;20203;-77
2022/02/04 15:49:24;;;;;;;9.27;8.77;;;7.50;99.90;;;;;;4992263;28;20204;-76
2022/02/04 15:54:45;;;;;;;9.20;8.70;;;7.50;99.90;;;;;;4953059;28;20209;-75
2022/02/04 15:57:31;;;;;;;9.10;8.60;;;7.40;99.90;;;;;;4990001;28;20207;-75
2022/02/04 16:00:15;;;;;;;9.63;9.10;;;7.50;99.90;;;;;;4984842;28;20219;-77
2022/02/04 16:02:59;;;;;;;9.27;8.70;;;7.50;99.90;;;;;;4987580;28;20214;-75
2022/02/04 16:05:27;;;;;;;9.40;8.90;;;7.40;99.90;;;;;;5014572;28;20196;-77
2022/02/04 16:07:55;;;;;;;9.07;8.57;;;7.40;99.90;;;;;;5021475;28;20249;-77
2022/02/04 16:10:30;;;;;;;10.07;9.47;;;7.40;99.90;;;;;;4992422;28;20216;-78
2022/02/04 16:13:10;;;;;;;9.23;8.73;;;7.40;99.90;;;;;;4993119;28;20207;-78
2022/02/04 16:15:48;;;;;;;9.50;8.90;;;7.40;99.90;;;;;;4983534;28;20278;-78
2022/02/04 16:18:19;;;;;;;9.50;9.00;;;7.40;99.90;;;;;;4986744;28;20221;-76
2022/02/04 16:21:04;;;;;;;9.40;8.90;;;7.40;99.90;;;;;;4983701;28;20229;-76
2022/02/04 16:23:35;;;;;;;9.87;9.37;;;7.40;99.90;;;;;;4983096;28;20209;-77
2022/02/04 16:26:25;;;;;;;9.50;8.90;;;7.40;99.90;;;;;;5014048;28;20247;-77
2022/02/04 16:28:52;;;;;;;9.20;8.70;;;7.40;99.90;;;;;;5008949;28;20560;-77
2022/02/04 16:31:20;;;;;;;9.50;9.00;;;7.30;99.90;;;;;;5052865;22;20243;-79
2022/02/04 16:33:48;;;;;;;9.30;8.80;;;7.30;99.90;;;;;;5045585;28;20192;-80
2022/02/04 16:36:20;;;;;;;9.07;8.57;;;7.30;99.90;;;;;;5039063;28;20632;-81
2022/02/04 16:38:52;;;;;;;10.80;10.20;;;7.30;99.90;;;;;;5053880;28;20218;-79
2022/02/04 16:41:28;;;;;;;10.80;10.20;;;7.30;99.90;;;;;;5047847;28;20270;-78
2022/02/04 16:43:57;;;;;;;11.10;10.50;;;7.30;99.90;;;;;;5024959;28;20255;-78
2022/02/04 16:46:24;;;;;;;11.40;10.70;;;7.30;99.90;;;;;;5033699;28;20272;-79
2022/02/04 16:48:52;;;;;;;10.50;9.80;;;7.30;99.90;;;;;;5037858;28;20664;-78
2022/02/04 16:51:22;;;;;;;10.57;9.97;;;7.30;99.90;;;;;;5037128;28;20228;-80
2022/02/04 16:53:50;;;;;;;10.73;10.13;;;7.30;99.90;;;;;;5027164;28;20198;-79
2022/02/04 16:59:19;;;;;;;10.90;10.30;;;7.20;99.90;;;;;;5030223;28;20233;-78
2022/02/04 17:01:52;;;;;;;11.50;10.80;;;7.20;99.90;;;;;;5087282;23;20496;-80
2022/02/04 17:04:44;;;;;;;11.40;10.80;;;7.10;99.90;;;;;;5011333;28;20679;-79
2022/02/04 17:10:42;;;;;;;10.07;9.57;;;7.10;99.90;;;;;;5013246;28;20305;-78
2022/02/04 17:37:01;;;;;;;9.70;9.20;;;7.10;99.90;;;;;;5733848;23;20233;-79
2022/02/04 17:39:28;;;;;;;9.60;9.10;;;7.20;99.90;;;;;;4934664;29;20648;-78
2022/02/04 17:41:58;;;;;;;9.70;9.10;;;7.20;99.90;;;;;;4921132;29;20205;-78
2022/02/04 17:44:25;;;;;;;9.80;9.20;;;7.20;99.90;;;;;;4936376;29;20213;-79
2022/02/04 17:46:53;;;;;;;9.80;9.20;;;7.20;99.90;;;;;;4917030;29;20229;-79
2022/02/04 17:49:25;;;;;;;10.00;9.50;;;7.30;99.90;;;;;;4917086;29;20208;-79
2022/02/04 17:51:56;;;;;;;9.50;8.90;;;7.30;99.90;;;;;;4957690;23;20236;-77
2022/02/04 17:54:32;;;;;;;9.60;9.00;;;7.30;99.90;;;;;;4915826;29;20601;-76
2022/02/04 17:57:05;;;;;;;9.80;9.20;;;7.30;99.90;;;;;;4932751;29;20204;-76
2022/02/04 17:59:51;;;;;;;9.63;9.13;;;7.30;99.90;;;;;;4917328;29;20229;-76